sensor_id;sensor_type;location;lat;lon;timestamp;temperature;humidity
47226;DHT22;32965;64.142;-21.912;2022-07-17T00:01:53;11.40;99.10
47226;DHT22;32965;64.142;-21.912;2022-07-17T00:04:19;11.40;99.10
47226;DHT22;32965;64.142;-21.912;2022-07-17T00:06:45;11.40;99.10
47226;DHT22;32965;64.142;-21.912;2022-07-17T00:09:10;11.40;99.10
47226;DHT22;32965;64.142;-21.912;2022-07-17T00:11:36;11.40;99.10
47226;DHT22;32965;64.142;-21.912;2022-07-17T00:14:02;11.30;99.10
47226;DHT22;32965;64.142;-21.912;2022-07-17T00:16:28;11.30;99.20
47226;DHT22;32965;64.142;-21.912;2022-07-17T00:18:54;11.30;99.20
47226;DHT22;32965;64.142;-21.912;2022-07-17T00:21:19;11.30;99.20
47226;DHT22;32965;64.142;-21.912;2022-07-17T00:23:45;11.30;99.20
47226;DHT22;32965;64.142;-21.912;2022-07-17T00:26:11;11.30;99.10
47226;DHT22;32965;64.142;-21.912;2022-07-17T00:28:37;11.30;99.10
47226;DHT22;32965;64.142;-21.912;2022-07-17T00:31:03;11.30;99.10
47226;DHT22;32965;64.142;-21.912;2022-07-17T00:33:28;11.30;99.10
47226;DHT22;32965;64.142;-21.912;2022-07-17T00:35:54;11.40;99.10
47226;DHT22;32965;64.142;-21.912;2022-07-17T00:38:20;11.40;99.10
47226;DHT22;32965;64.142;-21.912;2022-07-17T00:40:46;11.40;99.00
47226;DHT22;32965;64.142;-21.912;2022-07-17T00:43:11;11.40;99.00
47226;DHT22;32965;64.142;-21.912;2022-07-17T00:45:38;11.40;99.00
47226;DHT22;32965;64.142;-21.912;2022-07-17T00:48:06;11.40;99.00
47226;DHT22;32965;64.142;-21.912;2022-07-17T00:50:35;11.40;98.90
47226;DHT22;32965;64.142;-21.912;2022-07-17T00:53:02;11.40;98.90
47226;DHT22;32965;64.142;-21.912;2022-07-17T00:55:28;11.40;98.90
47226;DHT22;32965;64.142;-21.912;2022-07-17T00:57:55;11.50;98.90
47226;DHT22;32965;64.142;-21.912;2022-07-17T01:00:22;11.40;98.80
47226;DHT22;32965;64.142;-21.912;2022-07-17T01:02:50;11.50;98.80
47226;DHT22;32965;64.142;-21.912;2022-07-17T01:05:18;11.40;98.70
47226;DHT22;32965;64.142;-21.912;2022-07-17T01:07:44;11.40;98.70
47226;DHT22;32965;64.142;-21.912;2022-07-17T01:10:12;11.40;98.70
47226;DHT22;32965;64.142;-21.912;2022-07-17T01:12:38;11.40;98.70
47226;DHT22;32965;64.142;-21.912;2022-07-17T01:15:08;11.40;98.80
47226;DHT22;32965;64.142;-21.912;2022-07-17T01:17:34;11.40;98.80
47226;DHT22;32965;64.142;-21.912;2022-07-17T01:20:02;11.40;98.80
47226;DHT22;32965;64.142;-21.912;2022-07-17T01:22:28;11.40;98.80
47226;DHT22;32965;64.142;-21.912;2022-07-17T01:24:54;11.40;98.80
47226;DHT22;32965;64.142;-21.912;2022-07-17T01:27:20;11.40;98.80
47226;DHT22;32965;64.142;-21.912;2022-07-17T01:29:46;11.30;98.80
47226;DHT22;32965;64.142;-21.912;2022-07-17T01:32:12;11.30;98.90
47226;DHT22;32965;64.142;-21.912;2022-07-17T01:34:37;11.30;98.90
47226;DHT22;32965;64.142;-21.912;2022-07-17T01:37:03;11.30;99.00
47226;DHT22;32965;64.142;-21.912;2022-07-17T01:39:29;11.30;98.90
47226;DHT22;32965;64.142;-21.912;2022-07-17T01:42:13;11.30;99.00
47226;DHT22;32965;64.142;-21.912;2022-07-17T01:44:39;11.20;99.00
47226;DHT22;32965;64.142;-21.912;2022-07-17T01:47:05;11.30;99.10
47226;DHT22;32965;64.142;-21.912;2022-07-17T01:49:31;11.20;99.10
47226;DHT22;32965;64.142;-21.912;2022-07-17T01:51:56;11.30;99.20
47226;DHT22;32965;64.142;-21.912;2022-07-17T01:54:29;11.20;99.20
47226;DHT22;32965;64.142;-21.912;2022-07-17T01:56:56;11.20;99.20
47226;DHT22;32965;64.142;-21.912;2022-07-17T01:59:22;11.20;99.30
47226;DHT22;32965;64.142;-21.912;2022-07-17T02:01:48;11.10;99.30
47226;DHT22;32965;64.142;-21.912;2022-07-17T02:04:14;11.20;99.30
47226;DHT22;32965;64.142;-21.912;2022-07-17T02:06:39;11.20;99.30
47226;DHT22;32965;64.142;-21.912;2022-07-17T02:09:05;11.20;99.40
47226;DHT22;32965;64.142;-21.912;2022-07-17T02:11:31;11.20;99.30
47226;DHT22;32965;64.142;-21.912;2022-07-17T02:13:57;11.20;99.30
47226;DHT22;32965;64.142;-21.912;2022-07-17T02:16:23;11.10;99.40
47226;DHT22;32965;64.142;-21.912;2022-07-17T02:18:48;11.10;99.40
47226;DHT22;32965;64.142;-21.912;2022-07-17T02:21:14;11.10;99.50
47226;DHT22;32965;64.142;-21.912;2022-07-17T02:23:40;11.00;99.50
47226;DHT22;32965;64.142;-21.912;2022-07-17T02:26:06;11.00;99.50
47226;DHT22;32965;64.142;-21.912;2022-07-17T02:28:31;11.00;99.60
47226;DHT22;32965;64.142;-21.912;2022-07-17T02:30:57;11.00;99.80
47226;DHT22;32965;64.142;-21.912;2022-07-17T02:33:23;10.90;99.80
47226;DHT22;32965;64.142;-21.912;2022-07-17T02:35:49;10.90;99.90
47226;DHT22;32965;64.142;-21.912;2022-07-17T02:38:14;10.90;99.90
47226;DHT22;32965;64.142;-21.912;2022-07-17T02:40:40;10.90;99.90
47226;DHT22;32965;64.142;-21.912;2022-07-17T02:43:07;10.80;99.90
47226;DHT22;32965;64.142;-21.912;2022-07-17T02:45:33;10.80;99.90
47226;DHT22;32965;64.142;-21.912;2022-07-17T02:47:59;10.80;99.90
47226;DHT22;32965;64.142;-21.912;2022-07-17T02:50:25;10.90;99.90
47226;DHT22;32965;64.142;-21.912;2022-07-17T02:52:51;10.90;99.90
47226;DHT22;32965;64.142;-21.912;2022-07-17T02:55:17;10.90;99.90
47226;DHT22;32965;64.142;-21.912;2022-07-17T02:57:44;10.80;99.90
47226;DHT22;32965;64.142;-21.912;2022-07-17T03:00:13;10.80;99.90
47226;DHT22;32965;64.142;-21.912;2022-07-17T03:02:42;10.70;99.90
47226;DHT22;32965;64.142;-21.912;2022-07-17T03:05:08;10.70;99.90
47226;DHT22;32965;64.142;-21.912;2022-07-17T03:07:35;10.70;99.90
47226;DHT22;32965;64.142;-21.912;2022-07-17T03:10:00;10.70;99.90
47226;DHT22;32965;64.142;-21.912;2022-07-17T03:12:26;10.60;99.90
47226;DHT22;32965;64.142;-21.912;2022-07-17T03:14:53;10.70;99.90
47226;DHT22;32965;64.142;-21.912;2022-07-17T03:17:18;10.60;99.90
47226;DHT22;32965;64.142;-21.912;2022-07-17T03:19:44;10.70;99.90
47226;DHT22;32965;64.142;-21.912;2022-07-17T03:22:10;10.70;99.90
47226;DHT22;32965;64.142;-21.912;2022-07-17T03:24:36;10.70;99.90
47226;DHT22;32965;64.142;-21.912;2022-07-17T03:27:02;10.70;99.90
47226;DHT22;32965;64.142;-21.912;2022-07-17T03:29:28;10.70;99.90
47226;DHT22;32965;64.142;-21.912;2022-07-17T03:31:53;10.80;99.90
47226;DHT22;32965;64.142;-21.912;2022-07-17T03:34:19;10.70;99.90
47226;DHT22;32965;64.142;-21.912;2022-07-17T03:36:45;10.70;99.90
47226;DHT22;32965;64.142;-21.912;2022-07-17T03:39:11;10.80;99.90
47226;DHT22;32965;64.142;-21.912;2022-07-17T03:41:37;10.80;99.90
47226;DHT22;32965;64.142;-21.912;2022-07-17T03:44:02;10.70;99.90
47226;DHT22;32965;64.142;-21.912;2022-07-17T03:46:28;10.80;99.90
47226;DHT22;32965;64.142;-21.912;2022-07-17T03:48:54;10.80;99.90
47226;DHT22;32965;64.142;-21.912;2022-07-17T03:51:20;10.80;99.90
47226;DHT22;32965;64.142;-21.912;2022-07-17T03:53:46;10.80;99.90
47226;DHT22;32965;64.142;-21.912;2022-07-17T03:56:11;10.80;99.90
47226;DHT22;32965;64.142;-21.912;2022-07-17T03:58:37;10.80;99.90
47226;DHT22;32965;64.142;-21.912;2022-07-17T04:01:03;10.80;99.90
47226;DHT22;32965;64.142;-21.912;2022-07-17T04:03:29;10.80;99.90
47226;DHT22;32965;64.142;-21.912;2022-07-17T04:05:56;10.70;99.90
47226;DHT22;32965;64.142;-21.912;2022-07-17T04:08:22;10.80;99.90
47226;DHT22;32965;64.142;-21.912;2022-07-17T04:10:48;10.80;99.90
47226;DHT22;32965;64.142;-21.912;2022-07-17T04:13:13;10.80;99.90
47226;DHT22;32965;64.142;-21.912;2022-07-17T04:15:39;10.80;99.90
47226;DHT22;32965;64.142;-21.912;2022-07-17T04:18:33;10.70;99.90
47226;DHT22;32965;64.142;-21.912;2022-07-17T04:21:08;10.70;99.90
47226;DHT22;32965;64.142;-21.912;2022-07-17T04:23:35;10.70;99.90
47226;DHT22;32965;64.142;-21.912;2022-07-17T04:26:02;10.80;99.90
47226;DHT22;32965;64.142;-21.912;2022-07-17T04:28:28;10.80;99.90
47226;DHT22;32965;64.142;-21.912;2022-07-17T04:30:53;10.80;99.90
47226;DHT22;32965;64.142;-21.912;2022-07-17T04:33:19;10.80;99.90
47226;DHT22;32965;64.142;-21.912;2022-07-17T04:35:45;10.80;99.90
47226;DHT22;32965;64.142;-21.912;2022-07-17T04:38:11;10.80;99.90
47226;DHT22;32965;64.142;-21.912;2022-07-17T04:40:38;10.90;99.90
47226;DHT22;32965;64.142;-21.912;2022-07-17T04:43:05;10.80;99.90
47226;DHT22;32965;64.142;-21.912;2022-07-17T04:45:32;10.80;99.90
47226;DHT22;32965;64.142;-21.912;2022-07-17T04:47:58;10.80;99.90
47226;DHT22;32965;64.142;-21.912;2022-07-17T04:50:24;10.90;99.90
47226;DHT22;32965;64.142;-21.912;2022-07-17T04:52:50;10.90;99.90
47226;DHT22;32965;64.142;-21.912;2022-07-17T04:55:16;10.90;99.90
47226;DHT22;32965;64.142;-21.912;2022-07-17T04:57:43;11.00;99.90
47226;DHT22;32965;64.142;-21.912;2022-07-17T05:00:10;11.00;99.90
47226;DHT22;32965;64.142;-21.912;2022-07-17T05:02:36;11.00;99.90
47226;DHT22;32965;64.142;-21.912;2022-07-17T05:05:03;11.00;99.90
47226;DHT22;32965;64.142;-21.912;2022-07-17T05:07:29;11.00;99.90
47226;DHT22;32965;64.142;-21.912;2022-07-17T05:09:55;11.10;99.90
47226;DHT22;32965;64.142;-21.912;2022-07-17T05:12:20;11.20;99.90
47226;DHT22;32965;64.142;-21.912;2022-07-17T05:14:46;11.30;99.90
47226;DHT22;32965;64.142;-21.912;2022-07-17T05:17:12;11.30;99.90
47226;DHT22;32965;64.142;-21.912;2022-07-17T05:19:38;11.30;99.90
47226;DHT22;32965;64.142;-21.912;2022-07-17T05:22:04;11.40;99.90
47226;DHT22;32965;64.142;-21.912;2022-07-17T05:24:30;11.40;99.90
47226;DHT22;32965;64.142;-21.912;2022-07-17T05:26:56;11.40;99.90
47226;DHT22;32965;64.142;-21.912;2022-07-17T05:29:23;11.40;99.90
47226;DHT22;32965;64.142;-21.912;2022-07-17T05:31:49;11.40;99.90
47226;DHT22;32965;64.142;-21.912;2022-07-17T05:34:14;11.40;99.90
47226;DHT22;32965;64.142;-21.912;2022-07-17T05:36:40;11.40;99.90
47226;DHT22;32965;64.142;-21.912;2022-07-17T05:39:06;11.40;99.90
47226;DHT22;32965;64.142;-21.912;2022-07-17T05:41:34;11.40;99.90
47226;DHT22;32965;64.142;-21.912;2022-07-17T05:43:59;11.40;99.90
47226;DHT22;32965;64.142;-21.912;2022-07-17T05:46:25;11.50;99.90
47226;DHT22;32965;64.142;-21.912;2022-07-17T05:48:51;11.40;99.90
47226;DHT22;32965;64.142;-21.912;2022-07-17T05:51:17;11.40;99.90
47226;DHT22;32965;64.142;-21.912;2022-07-17T05:53:43;11.50;99.90
47226;DHT22;32965;64.142;-21.912;2022-07-17T05:56:10;11.50;99.90
47226;DHT22;32965;64.142;-21.912;2022-07-17T05:58:36;11.50;99.90
47226;DHT22;32965;64.142;-21.912;2022-07-17T06:01:01;11.50;99.90
47226;DHT22;32965;64.142;-21.912;2022-07-17T06:03:27;11.50;99.90
47226;DHT22;32965;64.142;-21.912;2022-07-17T06:05:54;11.50;99.90
47226;DHT22;32965;64.142;-21.912;2022-07-17T06:08:20;11.50;99.90
47226;DHT22;32965;64.142;-21.912;2022-07-17T06:10:46;11.50;99.90
47226;DHT22;32965;64.142;-21.912;2022-07-17T06:13:11;11.60;99.90
47226;DHT22;32965;64.142;-21.912;2022-07-17T06:15:37;11.60;99.90
47226;DHT22;32965;64.142;-21.912;2022-07-17T06:18:03;11.60;99.90
47226;DHT22;32965;64.142;-21.912;2022-07-17T06:20:29;11.70;99.90
47226;DHT22;32965;64.142;-21.912;2022-07-17T06:22:56;11.70;99.90
47226;DHT22;32965;64.142;-21.912;2022-07-17T06:25:22;11.80;99.90
47226;DHT22;32965;64.142;-21.912;2022-07-17T06:27:48;11.90;99.90
47226;DHT22;32965;64.142;-21.912;2022-07-17T06:30:15;11.90;99.90
47226;DHT22;32965;64.142;-21.912;2022-07-17T06:32:41;12.00;99.90
47226;DHT22;32965;64.142;-21.912;2022-07-17T06:35:08;11.90;99.90
47226;DHT22;32965;64.142;-21.912;2022-07-17T06:37:34;12.00;99.90
47226;DHT22;32965;64.142;-21.912;2022-07-17T06:40:01;12.00;99.90
47226;DHT22;32965;64.142;-21.912;2022-07-17T06:42:27;12.10;99.90
47226;DHT22;32965;64.142;-21.912;2022-07-17T06:44:52;12.30;99.90
47226;DHT22;32965;64.142;-21.912;2022-07-17T06:47:19;12.40;99.90
47226;DHT22;32965;64.142;-21.912;2022-07-17T06:49:44;12.50;99.90
47226;DHT22;32965;64.142;-21.912;2022-07-17T06:52:10;12.60;99.90
47226;DHT22;32965;64.142;-21.912;2022-07-17T06:54:36;12.70;99.80
47226;DHT22;32965;64.142;-21.912;2022-07-17T06:57:02;12.70;99.50
47226;DHT22;32965;64.142;-21.912;2022-07-17T06:59:28;12.70;99.40
47226;DHT22;32965;64.142;-21.912;2022-07-17T07:01:54;12.80;99.30
47226;DHT22;32965;64.142;-21.912;2022-07-17T07:04:19;12.90;99.20
47226;DHT22;32965;64.142;-21.912;2022-07-17T07:06:45;12.90;99.10
47226;DHT22;32965;64.142;-21.912;2022-07-17T07:09:11;13.00;98.80
47226;DHT22;32965;64.142;-21.912;2022-07-17T07:11:37;13.10;98.70
47226;DHT22;32965;64.142;-21.912;2022-07-17T07:14:05;13.20;98.40
47226;DHT22;32965;64.142;-21.912;2022-07-17T07:16:32;13.20;98.40
47226;DHT22;32965;64.142;-21.912;2022-07-17T07:18:58;13.10;98.30
47226;DHT22;32965;64.142;-21.912;2022-07-17T07:21:23;13.10;98.20
47226;DHT22;32965;64.142;-21.912;2022-07-17T07:23:52;13.10;98.20
47226;DHT22;32965;64.142;-21.912;2022-07-17T07:26:18;13.10;98.10
47226;DHT22;32965;64.142;-21.912;2022-07-17T07:28:44;13.10;98.10
47226;DHT22;32965;64.142;-21.912;2022-07-17T07:31:10;13.10;98.10
47226;DHT22;32965;64.142;-21.912;2022-07-17T07:33:37;13.10;98.00
47226;DHT22;32965;64.142;-21.912;2022-07-17T07:36:03;13.20;97.90
47226;DHT22;32965;64.142;-21.912;2022-07-17T07:38:29;13.10;97.70
47226;DHT22;32965;64.142;-21.912;2022-07-17T07:40:56;13.10;97.70
47226;DHT22;32965;64.142;-21.912;2022-07-17T07:43:22;13.00;97.80
47226;DHT22;32965;64.142;-21.912;2022-07-17T07:45:47;13.10;97.80
47226;DHT22;32965;64.142;-21.912;2022-07-17T07:48:13;13.10;97.80
47226;DHT22;32965;64.142;-21.912;2022-07-17T07:50:39;13.10;97.70
47226;DHT22;32965;64.142;-21.912;2022-07-17T07:53:05;13.10;97.70
47226;DHT22;32965;64.142;-21.912;2022-07-17T07:55:31;13.10;97.50
47226;DHT22;32965;64.142;-21.912;2022-07-17T07:58:11;13.10;97.50
47226;DHT22;32965;64.142;-21.912;2022-07-17T08:00:37;13.00;97.50
47226;DHT22;32965;64.142;-21.912;2022-07-17T08:03:04;13.00;97.70
47226;DHT22;32965;64.142;-21.912;2022-07-17T08:05:30;13.10;97.40
47226;DHT22;32965;64.142;-21.912;2022-07-17T08:07:56;13.10;97.50
47226;DHT22;32965;64.142;-21.912;2022-07-17T08:10:23;13.30;97.40
47226;DHT22;32965;64.142;-21.912;2022-07-17T08:12:49;13.30;97.10
47226;DHT22;32965;64.142;-21.912;2022-07-17T08:15:17;13.30;97.10
47226;DHT22;32965;64.142;-21.912;2022-07-17T08:17:44;13.30;97.10
47226;DHT22;32965;64.142;-21.912;2022-07-17T08:20:10;13.40;97.00
47226;DHT22;32965;64.142;-21.912;2022-07-17T08:22:36;13.50;96.90
47226;DHT22;32965;64.142;-21.912;2022-07-17T08:25:03;13.60;96.70
47226;DHT22;32965;64.142;-21.912;2022-07-17T08:27:38;13.70;96.50
47226;DHT22;32965;64.142;-21.912;2022-07-17T08:30:05;13.80;96.00
47226;DHT22;32965;64.142;-21.912;2022-07-17T08:32:33;13.90;95.80
47226;DHT22;32965;64.142;-21.912;2022-07-17T08:34:59;14.00;95.60
47226;DHT22;32965;64.142;-21.912;2022-07-17T08:37:25;13.90;95.30
47226;DHT22;32965;64.142;-21.912;2022-07-17T08:39:51;13.90;95.30
47226;DHT22;32965;64.142;-21.912;2022-07-17T08:42:17;13.90;95.30
47226;DHT22;32965;64.142;-21.912;2022-07-17T08:44:44;14.00;95.30
47226;DHT22;32965;64.142;-21.912;2022-07-17T08:47:12;14.10;95.10
47226;DHT22;32965;64.142;-21.912;2022-07-17T08:49:44;14.20;94.80
47226;DHT22;32965;64.142;-21.912;2022-07-17T08:52:11;14.10;94.90
47226;DHT22;32965;64.142;-21.912;2022-07-17T08:54:38;14.00;95.10
47226;DHT22;32965;64.142;-21.912;2022-07-17T08:57:04;14.00;95.00
47226;DHT22;32965;64.142;-21.912;2022-07-17T08:59:30;13.90;95.20
47226;DHT22;32965;64.142;-21.912;2022-07-17T09:02:00;14.00;95.40
47226;DHT22;32965;64.142;-21.912;2022-07-17T09:04:27;14.00;95.20
47226;DHT22;32965;64.142;-21.912;2022-07-17T09:07:01;14.10;95.20
47226;DHT22;32965;64.142;-21.912;2022-07-17T09:09:27;14.10;95.10
47226;DHT22;32965;64.142;-21.912;2022-07-17T09:11:54;14.00;95.10
47226;DHT22;32965;64.142;-21.912;2022-07-17T09:14:21;13.90;95.20
47226;DHT22;32965;64.142;-21.912;2022-07-17T09:16:57;13.90;95.20
47226;DHT22;32965;64.142;-21.912;2022-07-17T09:19:34;14.00;95.40
47226;DHT22;32965;64.142;-21.912;2022-07-17T09:22:06;14.00;95.20
47226;DHT22;32965;64.142;-21.912;2022-07-17T09:25:02;14.00;95.00
47226;DHT22;32965;64.142;-21.912;2022-07-17T09:27:31;14.10;95.00
47226;DHT22;32965;64.142;-21.912;2022-07-17T09:29:58;14.30;94.80
47226;DHT22;32965;64.142;-21.912;2022-07-17T09:32:28;14.40;94.40
47226;DHT22;32965;64.142;-21.912;2022-07-17T09:34:56;14.20;93.90
47226;DHT22;32965;64.142;-21.912;2022-07-17T09:37:24;13.80;93.80
47226;DHT22;32965;64.142;-21.912;2022-07-17T09:39:50;13.70;94.20
47226;DHT22;32965;64.142;-21.912;2022-07-17T09:42:28;13.60;94.40
47226;DHT22;32965;64.142;-21.912;2022-07-17T09:45:02;13.60;94.30
47226;DHT22;32965;64.142;-21.912;2022-07-17T09:47:30;13.40;94.50
47226;DHT22;32965;64.142;-21.912;2022-07-17T09:49:57;13.50;94.80
47226;DHT22;32965;64.142;-21.912;2022-07-17T09:52:29;13.60;94.80
47226;DHT22;32965;64.142;-21.912;2022-07-17T09:54:59;13.70;94.40
47226;DHT22;32965;64.142;-21.912;2022-07-17T09:57:28;13.70;94.20
47226;DHT22;32965;64.142;-21.912;2022-07-17T09:59:55;13.70;94.20
47226;DHT22;32965;64.142;-21.912;2022-07-17T10:02:21;13.80;94.30
47226;DHT22;32965;64.142;-21.912;2022-07-17T10:04:48;13.80;94.10
47226;DHT22;32965;64.142;-21.912;2022-07-17T10:07:15;13.80;94.10
47226;DHT22;32965;64.142;-21.912;2022-07-17T10:09:40;13.80;94.00
47226;DHT22;32965;64.142;-21.912;2022-07-17T10:12:07;14.00;93.70
47226;DHT22;32965;64.142;-21.912;2022-07-17T10:14:34;14.00;93.60
47226;DHT22;32965;64.142;-21.912;2022-07-17T10:17:11;14.10;93.60
47226;DHT22;32965;64.142;-21.912;2022-07-17T10:19:48;14.20;93.60
47226;DHT22;32965;64.142;-21.912;2022-07-17T10:22:14;14.20;93.40
47226;DHT22;32965;64.142;-21.912;2022-07-17T10:24:57;14.30;93.10
47226;DHT22;32965;64.142;-21.912;2022-07-17T10:27:30;14.30;92.90
47226;DHT22;32965;64.142;-21.912;2022-07-17T10:32:28;14.10;93.20
47226;DHT22;32965;64.142;-21.912;2022-07-17T10:39:59;13.90;92.90
47226;DHT22;32965;64.142;-21.912;2022-07-17T10:48:26;13.40;93.70
47226;DHT22;32965;64.142;-21.912;2022-07-17T10:50:54;13.40;93.80
47226;DHT22;32965;64.142;-21.912;2022-07-17T10:55:56;13.30;94.40
47226;DHT22;32965;64.142;-21.912;2022-07-17T10:58:29;13.50;94.30
47226;DHT22;32965;64.142;-21.912;2022-07-17T11:08:44;13.90;93.40
47226;DHT22;32965;64.142;-21.912;2022-07-17T11:11:11;13.90;93.40
47226;DHT22;32965;64.142;-21.912;2022-07-17T11:13:37;14.00;93.40
47226;DHT22;32965;64.142;-21.912;2022-07-17T11:16:04;14.10;93.30
47226;DHT22;32965;64.142;-21.912;2022-07-17T11:18:31;14.40;93.10
47226;DHT22;32965;64.142;-21.912;2022-07-17T11:20:59;14.60;92.90
47226;DHT22;32965;64.142;-21.912;2022-07-17T11:23:28;15.10;92.40
47226;DHT22;32965;64.142;-21.912;2022-07-17T11:26:04;15.30;91.90
47226;DHT22;32965;64.142;-21.912;2022-07-17T11:28:31;15.40;91.40
47226;DHT22;32965;64.142;-21.912;2022-07-17T11:30:59;15.60;91.20
47226;DHT22;32965;64.142;-21.912;2022-07-17T11:33:25;15.80;90.70
47226;DHT22;32965;64.142;-21.912;2022-07-17T11:35:50;15.90;90.40
47226;DHT22;32965;64.142;-21.912;2022-07-17T11:38:27;16.10;90.00
47226;DHT22;32965;64.142;-21.912;2022-07-17T11:40:54;16.40;89.20
47226;DHT22;32965;64.142;-21.912;2022-07-17T11:43:20;16.60;88.40
47226;DHT22;32965;64.142;-21.912;2022-07-17T11:45:46;16.80;87.10
47226;DHT22;32965;64.142;-21.912;2022-07-17T11:48:12;16.90;86.40
47226;DHT22;32965;64.142;-21.912;2022-07-17T11:50:38;17.00;85.70
47226;DHT22;32965;64.142;-21.912;2022-07-17T11:53:05;17.20;85.30
47226;DHT22;32965;64.142;-21.912;2022-07-17T11:55:41;17.30;84.40
47226;DHT22;32965;64.142;-21.912;2022-07-17T11:58:07;17.30;83.50
47226;DHT22;32965;64.142;-21.912;2022-07-17T12:00:33;17.20;82.70
47226;DHT22;32965;64.142;-21.912;2022-07-17T12:03:04;17.40;82.90
47226;DHT22;32965;64.142;-21.912;2022-07-17T12:05:33;17.50;81.50
47226;DHT22;32965;64.142;-21.912;2022-07-17T12:08:00;17.40;80.90
47226;DHT22;32965;64.142;-21.912;2022-07-17T12:10:29;16.90;82.10
47226;DHT22;32965;64.142;-21.912;2022-07-17T12:13:02;16.60;82.80
47226;DHT22;32965;64.142;-21.912;2022-07-17T12:15:41;16.70;83.20
47226;DHT22;32965;64.142;-21.912;2022-07-17T12:18:25;16.40;84.20
47226;DHT22;32965;64.142;-21.912;2022-07-17T12:20:55;16.50;84.80
47226;DHT22;32965;64.142;-21.912;2022-07-17T12:23:39;16.40;84.80
47226;DHT22;32965;64.142;-21.912;2022-07-17T12:28:34;16.20;85.40
47226;DHT22;32965;64.142;-21.912;2022-07-17T12:31:01;16.20;85.80
47226;DHT22;32965;64.142;-21.912;2022-07-17T12:33:27;16.20;85.90
47226;DHT22;32965;64.142;-21.912;2022-07-17T12:35:52;16.10;85.60
47226;DHT22;32965;64.142;-21.912;2022-07-17T12:38:18;16.00;85.90
47226;DHT22;32965;64.142;-21.912;2022-07-17T12:40:45;16.00;86.00
47226;DHT22;32965;64.142;-21.912;2022-07-17T12:43:11;16.10;85.90
47226;DHT22;32965;64.142;-21.912;2022-07-17T12:45:38;16.10;85.70
47226;DHT22;32965;64.142;-21.912;2022-07-17T12:48:04;16.10;85.60
47226;DHT22;32965;64.142;-21.912;2022-07-17T12:50:30;16.10;84.70
47226;DHT22;32965;64.142;-21.912;2022-07-17T12:52:56;16.10;84.10
47226;DHT22;32965;64.142;-21.912;2022-07-17T12:55:21;16.10;83.00
47226;DHT22;32965;64.142;-21.912;2022-07-17T12:57:47;16.20;82.20
47226;DHT22;32965;64.142;-21.912;2022-07-17T13:00:13;16.20;81.40
47226;DHT22;32965;64.142;-21.912;2022-07-17T13:02:40;16.20;80.80
47226;DHT22;32965;64.142;-21.912;2022-07-17T13:05:06;16.30;80.90
47226;DHT22;32965;64.142;-21.912;2022-07-17T13:07:32;16.40;80.30
47226;DHT22;32965;64.142;-21.912;2022-07-17T13:09:58;16.40;79.90
47226;DHT22;32965;64.142;-21.912;2022-07-17T13:12:24;16.50;79.00
47226;DHT22;32965;64.142;-21.912;2022-07-17T13:14:49;16.50;77.70
47226;DHT22;32965;64.142;-21.912;2022-07-17T13:17:15;16.40;77.40
47226;DHT22;32965;64.142;-21.912;2022-07-17T13:19:41;16.40;77.80
47226;DHT22;32965;64.142;-21.912;2022-07-17T13:22:07;16.40;78.00
47226;DHT22;32965;64.142;-21.912;2022-07-17T13:24:33;16.50;77.90
47226;DHT22;32965;64.142;-21.912;2022-07-17T13:27:00;16.60;78.10
47226;DHT22;32965;64.142;-21.912;2022-07-17T13:29:26;16.80;78.40
47226;DHT22;32965;64.142;-21.912;2022-07-17T13:31:55;16.80;78.80
47226;DHT22;32965;64.142;-21.912;2022-07-17T13:34:22;16.80;80.00
47226;DHT22;32965;64.142;-21.912;2022-07-17T13:36:48;16.80;80.60
47226;DHT22;32965;64.142;-21.912;2022-07-17T13:42:30;16.70;80.80
47226;DHT22;32965;64.142;-21.912;2022-07-17T13:45:20;16.70;81.90
47226;DHT22;32965;64.142;-21.912;2022-07-17T13:48:38;16.70;81.80
47226;DHT22;32965;64.142;-21.912;2022-07-17T13:51:38;16.70;81.30
47226;DHT22;32965;64.142;-21.912;2022-07-17T13:54:50;16.60;81.00
47226;DHT22;32965;64.142;-21.912;2022-07-17T14:21:11;16.50;82.50
47226;DHT22;32965;64.142;-21.912;2022-07-17T14:23:50;16.40;82.50
47226;DHT22;32965;64.142;-21.912;2022-07-17T14:34:27;16.60;83.20
47226;DHT22;32965;64.142;-21.912;2022-07-17T14:37:26;16.70;83.40
47226;DHT22;32965;64.142;-21.912;2022-07-17T14:40:24;16.80;82.80
47226;DHT22;32965;64.142;-21.912;2022-07-17T14:43:02;16.80;82.80
47226;DHT22;32965;64.142;-21.912;2022-07-17T14:45:31;16.90;82.30
47226;DHT22;32965;64.142;-21.912;2022-07-17T14:48:11;17.00;81.60
47226;DHT22;32965;64.142;-21.912;2022-07-17T14:50:44;17.00;81.70
47226;DHT22;32965;64.142;-21.912;2022-07-17T14:53:34;16.90;81.90
47226;DHT22;32965;64.142;-21.912;2022-07-17T14:56:12;16.60;83.20
47226;DHT22;32965;64.142;-21.912;2022-07-17T14:58:44;16.30;84.30
47226;DHT22;32965;64.142;-21.912;2022-07-17T15:01:17;15.90;85.30
47226;DHT22;32965;64.142;-21.912;2022-07-17T15:08:56;15.30;90.00
47226;DHT22;32965;64.142;-21.912;2022-07-17T15:19:41;14.90;90.60
47226;DHT22;32965;64.142;-21.912;2022-07-17T15:22:39;15.00;91.20
47226;DHT22;32965;64.142;-21.912;2022-07-17T15:25:08;14.70;91.10
47226;DHT22;32965;64.142;-21.912;2022-07-17T15:30:22;14.40;91.70
47226;DHT22;32965;64.142;-21.912;2022-07-17T15:40:55;14.50;92.50
47226;DHT22;32965;64.142;-21.912;2022-07-17T15:45:56;14.70;91.80
47226;DHT22;32965;64.142;-21.912;2022-07-17T15:48:40;14.60;91.70
47226;DHT22;32965;64.142;-21.912;2022-07-17T15:57:05;15.20;90.80
47226;DHT22;32965;64.142;-21.912;2022-07-17T16:05:40;15.40;90.00
47226;DHT22;32965;64.142;-21.912;2022-07-17T16:08:07;15.40;89.10
47226;DHT22;32965;64.142;-21.912;2022-07-17T16:13:25;15.70;87.80
47226;DHT22;32965;64.142;-21.912;2022-07-17T16:16:03;15.90;85.60
47226;DHT22;32965;64.142;-21.912;2022-07-17T16:18:55;15.90;84.60
47226;DHT22;32965;64.142;-21.912;2022-07-17T16:21:23;15.90;84.50
47226;DHT22;32965;64.142;-21.912;2022-07-17T16:24:09;16.00;84.30
47226;DHT22;32965;64.142;-21.912;2022-07-17T16:26:40;15.00;84.00
47226;DHT22;32965;64.142;-21.912;2022-07-17T16:29:10;16.00;84.00
47226;DHT22;32965;64.142;-21.912;2022-07-17T16:31:40;16.10;83.40
47226;DHT22;32965;64.142;-21.912;2022-07-17T16:34:37;16.10;82.60
47226;DHT22;32965;64.142;-21.912;2022-07-17T16:37:32;16.10;82.40
47226;DHT22;32965;64.142;-21.912;2022-07-17T16:40:25;16.00;82.20
47226;DHT22;32965;64.142;-21.912;2022-07-17T16:43:19;15.80;83.20
47226;DHT22;32965;64.142;-21.912;2022-07-17T17:02:30;14.80;88.60
47226;DHT22;32965;64.142;-21.912;2022-07-17T17:08:16;14.90;88.30
47226;DHT22;32965;64.142;-21.912;2022-07-17T17:11:20;15.00;88.00
47226;DHT22;32965;64.142;-21.912;2022-07-17T17:47:26;14.70;86.40
47226;DHT22;32965;64.142;-21.912;2022-07-17T17:50:44;14.70;86.10